createdAt,value
2019-03-09T00:02:16.034Z,3.67
2019-03-09T00:04:45.990Z,3.43
2019-03-09T00:07:15.030Z,3.60
2019-03-09T00:09:44.435Z,3.43
2019-03-09T00:12:13.491Z,4.13
2019-03-09T00:14:42.619Z,3.53
2019-03-09T00:17:11.726Z,4.47
2019-03-09T00:19:40.736Z,3.97
2019-03-09T00:22:09.761Z,4.17
2019-03-09T00:24:49.419Z,4.60
2019-03-09T00:27:37.530Z,4.40
2019-03-09T00:30:30.449Z,5.43
2019-03-09T00:32:59.497Z,4.23
2019-03-09T00:35:28.528Z,5.07
2019-03-09T00:37:57.567Z,5.13
2019-03-09T00:40:26.606Z,4.47
2019-03-09T00:42:55.663Z,4.53
2019-03-09T00:45:24.746Z,5.07
2019-03-09T00:47:53.805Z,6.17
2019-03-09T00:50:22.881Z,4.87
2019-03-09T00:52:51.936Z,4.70
2019-03-09T00:55:20.973Z,4.27
2019-03-09T00:57:50.024Z,3.93
2019-03-09T01:00:19.754Z,3.77
2019-03-09T01:02:50.954Z,3.00
2019-03-09T01:05:19.562Z,2.77
2019-03-09T01:07:48.581Z,3.10
2019-03-09T01:10:17.798Z,3.10
2019-03-09T01:12:46.813Z,2.60
2019-03-09T01:15:15.852Z,2.43
2019-03-09T01:17:45.102Z,2.60
2019-03-09T01:20:15.361Z,2.20
2019-03-09T01:22:44.403Z,2.53
2019-03-09T01:25:13.436Z,2.37
2019-03-09T01:27:42.460Z,2.30
2019-03-09T01:30:13.781Z,3.33
2019-03-09T01:32:42.862Z,2.40
2019-03-09T01:35:31.089Z,2.60
2019-03-09T01:38:00.144Z,2.43
2019-03-09T01:40:29.226Z,2.53
2019-03-09T01:42:58.275Z,2.37
2019-03-09T01:45:28.352Z,2.50
2019-03-09T01:47:57.394Z,2.27
2019-03-09T01:50:26.443Z,2.30
2019-03-09T01:52:55.572Z,1.90
2019-03-09T01:55:24.596Z,1.90
2019-03-09T01:57:53.644Z,1.77
2019-03-09T02:00:22.721Z,1.97
2019-03-09T02:02:51.700Z,1.40
2019-03-09T02:05:20.710Z,1.93
2019-03-09T02:07:49.719Z,1.47
2019-03-09T02:10:18.761Z,1.70
2019-03-09T02:12:47.883Z,2.00
2019-03-09T02:15:17.214Z,1.60
2019-03-09T02:18:05.364Z,1.80
2019-03-09T02:20:34.426Z,1.90
2019-03-09T02:23:03.493Z,2.53
2019-03-09T02:25:32.541Z,3.20
2019-03-09T02:28:01.555Z,2.33
2019-03-09T02:30:30.672Z,2.53
2019-03-09T02:32:59.711Z,2.90
2019-03-09T02:35:28.767Z,2.20
2019-03-09T02:38:00.156Z,2.70
2019-03-09T02:40:29.315Z,3.17
2019-03-09T02:42:58.310Z,2.60
2019-03-09T02:45:27.914Z,2.57
2019-03-09T02:47:56.982Z,3.23
2019-03-09T02:50:25.976Z,2.43
2019-03-09T02:52:55.020Z,3.10
2019-03-09T02:55:24.067Z,3.03
2019-03-09T02:57:53.133Z,2.93
2019-03-09T03:00:22.252Z,2.70
2019-03-09T03:02:54.170Z,2.83
2019-03-09T03:05:23.296Z,3.20
2019-03-09T03:07:52.311Z,2.63
2019-03-09T03:10:21.377Z,3.33
2019-03-09T03:12:50.371Z,3.17
2019-03-09T03:15:44.644Z,4.30
2019-03-09T03:18:13.702Z,2.77
2019-03-09T03:20:42.742Z,2.43
2019-03-09T03:23:11.796Z,2.57
2019-03-09T03:25:40.937Z,2.47
2019-03-09T03:28:09.982Z,2.37
2019-03-09T03:30:39.116Z,2.97
2019-03-09T03:33:08.277Z,2.63
2019-03-09T03:35:37.257Z,2.43
2019-03-09T03:38:06.271Z,2.63
2019-03-09T03:40:35.391Z,2.93
2019-03-09T03:43:04.459Z,3.63
2019-03-09T03:45:33.456Z,2.50
2019-03-09T03:48:02.472Z,3.00
2019-03-09T03:50:31.490Z,3.33
2019-03-09T03:53:00.493Z,2.67
2019-03-09T03:55:29.512Z,2.50
2019-03-09T03:57:58.544Z,2.07
2019-03-09T04:00:27.643Z,1.97
2019-03-09T04:02:56.751Z,3.23
2019-03-09T04:05:25.802Z,2.30
2019-03-09T04:07:54.825Z,2.27
2019-03-09T04:10:23.823Z,2.87
2019-03-09T04:13:12.062Z,2.73
2019-03-09T04:15:41.167Z,2.30
2019-03-09T04:18:10.238Z,2.50
2019-03-09T04:20:39.272Z,3.23
2019-03-09T04:23:08.846Z,2.53
2019-03-09T04:25:37.817Z,2.50
2019-03-09T04:28:06.835Z,2.40
2019-03-09T04:30:35.888Z,2.40
2019-03-09T04:33:04.986Z,4.00
2019-03-09T04:35:34.045Z,2.33
2019-03-09T04:38:03.125Z,2.77
2019-03-09T04:40:32.134Z,2.37
2019-03-09T04:43:01.213Z,3.30
2019-03-09T04:45:30.234Z,1.80
2019-03-09T04:47:59.331Z,3.33
2019-03-09T04:50:28.397Z,1.93
2019-03-09T04:52:57.425Z,1.83
2019-03-09T04:55:26.432Z,2.73
2019-03-09T04:57:55.459Z,2.43
2019-03-09T05:00:24.484Z,1.90
2019-03-09T05:02:53.510Z,2.47
2019-03-09T05:05:22.590Z,2.00
2019-03-09T05:08:04.415Z,2.10
2019-03-09T05:10:40.446Z,2.20
2019-03-09T05:13:22.265Z,2.30
2019-03-09T05:15:51.335Z,2.33
2019-03-09T05:18:20.312Z,2.07
2019-03-09T05:20:49.355Z,2.20
2019-03-09T05:23:19.841Z,2.43
2019-03-09T05:25:48.933Z,2.10
2019-03-09T05:28:17.967Z,2.73
2019-03-09T05:30:47.069Z,2.00
2019-03-09T05:33:16.143Z,2.80
2019-03-09T05:35:45.186Z,2.73
2019-03-09T05:38:14.334Z,2.10
2019-03-09T05:40:43.345Z,2.23
2019-03-09T05:43:12.366Z,2.73
2019-03-09T05:45:41.364Z,2.60
2019-03-09T05:48:10.460Z,2.60
2019-03-09T05:50:39.543Z,2.40
2019-03-09T05:53:18.109Z,2.63
2019-03-09T05:55:47.118Z,2.37
2019-03-09T05:58:16.159Z,2.30
2019-03-09T06:00:45.280Z,2.17
2019-03-09T06:03:14.374Z,2.17
2019-03-09T06:06:03.959Z,1.87
2019-03-09T06:08:33.112Z,2.77
2019-03-09T06:11:02.201Z,2.10
2019-03-09T06:13:31.300Z,2.00
2019-03-09T06:16:00.327Z,2.30
2019-03-09T06:18:29.348Z,2.80
2019-03-09T06:20:58.345Z,2.00
2019-03-09T06:23:27.428Z,2.10
2019-03-09T06:25:56.430Z,2.47
2019-03-09T06:28:25.446Z,1.73
2019-03-09T06:30:54.506Z,1.93
2019-03-09T06:33:25.105Z,2.67
2019-03-09T06:35:57.762Z,2.30
2019-03-09T06:38:51.242Z,2.57
2019-03-09T06:41:33.474Z,2.63
2019-03-09T06:44:02.493Z,2.87
2019-03-09T06:46:31.499Z,2.30
2019-03-09T06:49:00.461Z,2.90
2019-03-09T06:51:29.410Z,3.07
2019-03-09T06:54:10.263Z,3.37
2019-03-09T06:56:39.349Z,2.17
2019-03-09T06:59:08.388Z,2.80
2019-03-09T07:01:37.406Z,2.60
2019-03-09T07:04:06.507Z,3.50
2019-03-09T07:06:35.590Z,2.70
2019-03-09T07:09:05.613Z,2.13
2019-03-09T07:11:34.731Z,2.67
2019-03-09T07:14:46.555Z,2.63
2019-03-09T07:17:15.573Z,2.37
2019-03-09T07:19:44.585Z,2.80
2019-03-09T07:22:13.636Z,2.43
2019-03-09T07:24:42.653Z,3.03
2019-03-09T07:27:11.753Z,2.93
2019-03-09T07:29:40.830Z,3.97
2019-03-09T07:32:09.854Z,3.07
2019-03-09T07:34:38.818Z,3.23
2019-03-09T07:37:07.788Z,3.83
2019-03-09T07:39:36.775Z,3.47
2019-03-09T07:42:05.770Z,3.03
2019-03-09T07:44:34.803Z,2.83
2019-03-09T07:47:03.847Z,2.70
2019-03-09T07:49:32.811Z,3.10
2019-03-09T07:52:01.865Z,3.00
2019-03-09T07:54:30.943Z,3.23
2019-03-09T07:57:00.001Z,3.30
2019-03-09T07:59:29.077Z,4.10
2019-03-09T08:01:58.071Z,3.00
2019-03-09T08:04:27.072Z,2.70
2019-03-09T08:06:56.102Z,2.60
2019-03-09T08:09:44.279Z,2.93
2019-03-09T08:12:13.337Z,2.47
2019-03-09T08:14:42.385Z,3.37
2019-03-09T08:17:11.473Z,3.40
2019-03-09T08:19:40.566Z,2.80
2019-03-09T08:22:09.606Z,3.30
2019-03-09T08:24:38.619Z,2.67
2019-03-09T08:27:07.683Z,3.80
2019-03-09T08:29:36.806Z,3.30
2019-03-09T08:32:05.932Z,3.30
2019-03-09T08:34:34.998Z,5.00
2019-03-09T08:37:04.094Z,2.90
2019-03-09T08:39:33.122Z,3.00
2019-03-09T08:42:02.126Z,3.13
2019-03-09T08:44:31.139Z,2.93
2019-03-09T08:47:00.163Z,3.30
2019-03-09T08:49:29.178Z,3.10
2019-03-09T08:51:58.316Z,2.80
2019-03-09T08:54:27.324Z,2.57
2019-03-09T08:56:56.369Z,2.80
2019-03-09T08:59:25.411Z,2.17
2019-03-09T09:01:54.493Z,2.50
2019-03-09T09:04:23.572Z,2.90
2019-03-09T09:06:52.615Z,3.53
2019-03-09T09:09:21.740Z,5.40
2019-03-09T09:11:50.761Z,3.37
2019-03-09T09:14:19.751Z,2.53
2019-03-09T09:16:48.797Z,3.93
2019-03-09T09:19:17.815Z,2.50
2019-03-09T09:21:46.874Z,4.17
2019-03-09T09:24:15.912Z,3.23
2019-03-09T09:26:44.927Z,3.47
2019-03-09T09:29:13.886Z,3.03
2019-03-09T09:31:42.948Z,2.73
2019-03-09T09:34:12.001Z,3.57
2019-03-09T09:36:41.019Z,3.33
2019-03-09T09:39:10.121Z,3.50
2019-03-09T09:41:39.162Z,3.40
2019-03-09T09:44:08.169Z,3.23
2019-03-09T09:46:37.203Z,2.93
2019-03-09T09:49:06.238Z,3.73
2019-03-09T09:51:35.305Z,2.90
2019-03-09T09:54:04.390Z,3.07
2019-03-09T09:56:33.459Z,3.70
2019-03-09T09:59:02.510Z,3.23
2019-03-09T10:01:31.582Z,3.20
2019-03-09T10:04:00.627Z,3.40
2019-03-09T10:06:29.587Z,4.07
2019-03-09T10:08:58.675Z,3.27
2019-03-09T10:11:27.692Z,2.97
2019-03-09T10:13:56.719Z,3.27
2019-03-09T10:16:25.721Z,3.33
2019-03-09T10:18:54.754Z,4.00
2019-03-09T10:21:23.752Z,2.83
2019-03-09T10:23:52.783Z,3.30
2019-03-09T10:26:24.055Z,4.70
2019-03-09T10:28:52.448Z,4.47
2019-03-09T10:31:21.454Z,3.67
2019-03-09T10:33:50.470Z,3.87
2019-03-09T10:36:19.483Z,4.03
2019-03-09T10:38:48.549Z,3.20
2019-03-09T10:41:17.663Z,3.57
2019-03-09T10:43:46.713Z,3.03
2019-03-09T10:46:15.719Z,4.33
2019-03-09T10:48:44.713Z,3.80
2019-03-09T10:51:13.711Z,4.40
2019-03-09T10:53:42.689Z,3.47
2019-03-09T10:56:11.691Z,4.40
2019-03-09T10:58:40.718Z,3.93
2019-03-09T11:01:09.729Z,4.30
2019-03-09T11:03:38.766Z,4.17
2019-03-09T11:06:07.812Z,4.57
2019-03-09T11:08:36.901Z,3.93
2019-03-09T11:11:05.964Z,4.20
2019-03-09T11:13:35.021Z,3.57
2019-03-09T11:16:04.047Z,3.83
2019-03-09T11:18:33.061Z,4.97
2019-03-09T11:21:02.086Z,4.60
2019-03-09T11:23:31.145Z,5.40
2019-03-09T11:26:00.193Z,5.17
2019-03-09T11:28:29.314Z,4.33
2019-03-09T11:30:58.374Z,4.83
2019-03-09T11:33:27.338Z,5.20
2019-03-09T11:35:56.353Z,4.93
2019-03-09T11:38:25.364Z,4.60
2019-03-09T11:40:58.558Z,5.43
2019-03-09T11:43:25.112Z,5.03
2019-03-09T11:45:54.155Z,4.30
2019-03-09T11:48:23.184Z,4.27
2019-03-09T11:50:52.135Z,4.50
2019-03-09T11:53:21.153Z,4.80
2019-03-09T11:55:50.136Z,4.53
2019-03-09T11:58:19.126Z,5.40
2019-03-09T12:00:48.629Z,5.37
2019-03-09T12:03:17.689Z,5.50
2019-03-09T12:05:46.753Z,5.47
2019-03-09T12:08:15.837Z,5.47
2019-03-09T12:10:44.899Z,6.50
2019-03-09T12:13:13.973Z,5.73
2019-03-09T12:15:43.074Z,4.53
2019-03-09T12:18:12.215Z,5.37
2019-03-09T12:20:41.354Z,5.17
2019-03-09T12:23:18.852Z,5.47
2019-03-09T12:25:47.941Z,4.93
2019-03-09T12:28:16.991Z,7.43
2019-03-09T12:30:46.004Z,5.33
2019-03-09T12:33:15.133Z,5.53
2019-03-09T12:35:44.338Z,6.67
2019-03-09T12:38:13.371Z,5.70
2019-03-09T12:40:42.343Z,4.90
2019-03-09T12:43:11.454Z,5.47
2019-03-09T12:45:40.536Z,4.40
2019-03-09T12:48:09.570Z,5.20
2019-03-09T12:50:38.643Z,5.27
2019-03-09T12:53:07.707Z,5.40
2019-03-09T12:55:36.699Z,5.63
2019-03-09T12:58:05.729Z,4.80
2019-03-09T13:00:34.700Z,5.63
2019-03-09T13:03:03.691Z,5.80
2019-03-09T13:05:32.721Z,6.00
2019-03-09T13:08:01.793Z,5.97
2019-03-09T13:10:30.834Z,6.87
2019-03-09T13:12:59.811Z,5.27
2019-03-09T13:15:28.775Z,5.90
2019-03-09T13:17:57.826Z,5.70
2019-03-09T13:20:26.828Z,4.97
2019-03-09T13:22:58.743Z,6.10
2019-03-09T13:25:27.873Z,6.10
2019-03-09T13:27:57.020Z,6.17
2019-03-09T13:30:26.109Z,5.93
2019-03-09T13:32:55.171Z,6.23
2019-03-09T13:35:24.159Z,6.50
2019-03-09T13:37:53.204Z,6.90
2019-03-09T13:40:22.237Z,6.33
2019-03-09T13:42:51.242Z,6.33
2019-03-09T13:45:20.264Z,5.70
2019-03-09T13:47:49.310Z,6.03
2019-03-09T13:50:18.357Z,5.87
2019-03-09T13:52:47.382Z,4.20
2019-03-09T13:55:16.469Z,3.97
2019-03-09T13:57:45.515Z,3.83
2019-03-09T14:00:15.093Z,3.20
2019-03-09T14:02:44.159Z,2.57
2019-03-09T14:05:13.092Z,2.27
2019-03-09T14:07:42.123Z,1.73
2019-03-09T14:10:11.585Z,1.70
2019-03-09T14:12:40.668Z,1.53
2019-03-09T14:15:11.559Z,1.63
2019-03-09T14:17:40.593Z,1.07
2019-03-09T14:20:10.003Z,1.37
2019-03-09T14:22:39.024Z,1.80
2019-03-09T14:25:08.565Z,1.20
2019-03-09T14:27:37.592Z,2.07
2019-03-09T14:30:06.827Z,2.17
2019-03-09T14:32:35.966Z,2.23
2019-03-09T14:35:05.619Z,1.93
2019-03-09T14:37:34.637Z,2.17
2019-03-09T14:40:03.785Z,3.30
2019-03-09T14:42:32.963Z,2.30
2019-03-09T14:45:02.006Z,2.43
2019-03-09T14:47:30.984Z,2.17
2019-03-09T14:50:00.031Z,2.07
2019-03-09T14:52:28.971Z,2.60
2019-03-09T14:54:58.013Z,2.53
2019-03-09T14:57:27.076Z,2.13
2019-03-09T14:59:56.104Z,2.07
2019-03-09T15:02:25.090Z,2.33
2019-03-09T15:04:54.146Z,2.50
2019-03-09T15:07:23.236Z,2.17
2019-03-09T15:09:52.700Z,2.50
2019-03-09T15:12:21.750Z,2.00
2019-03-09T15:14:50.819Z,2.60
2019-03-09T15:17:19.892Z,2.77
2019-03-09T15:19:48.989Z,2.27
2019-03-09T15:22:18.070Z,3.30
2019-03-09T15:24:47.070Z,2.53
2019-03-09T15:27:16.188Z,2.90
2019-03-09T15:29:45.254Z,2.30
2019-03-09T15:32:14.241Z,2.20
2019-03-09T15:34:43.298Z,2.60
2019-03-09T15:37:12.433Z,2.47
2019-03-09T15:39:41.489Z,2.50
2019-03-09T15:42:10.567Z,1.90
2019-03-09T15:44:39.618Z,2.70
2019-03-09T15:47:08.644Z,2.47
2019-03-09T15:49:37.658Z,2.27
2019-03-09T15:52:06.672Z,2.63
2019-03-09T15:54:35.767Z,1.97
2019-03-09T15:57:04.778Z,2.20
2019-03-09T15:59:49.006Z,2.40
2019-03-09T16:02:19.301Z,1.83
2019-03-09T16:04:48.368Z,1.97
2019-03-09T16:07:17.429Z,2.10
2019-03-09T16:09:46.425Z,1.80
2019-03-09T16:12:17.523Z,2.30
2019-03-09T16:14:46.570Z,2.40
2019-03-09T16:17:15.567Z,2.50
2019-03-09T16:19:44.609Z,2.30
2019-03-09T16:22:13.662Z,2.33
2019-03-09T16:24:42.704Z,2.33
2019-03-09T16:27:11.772Z,2.23
2019-03-09T16:29:40.818Z,2.27
2019-03-09T16:32:09.931Z,1.87
2019-03-09T16:34:38.877Z,1.60
2019-03-09T16:37:07.877Z,2.10
2019-03-09T16:39:36.887Z,1.87
2019-03-09T16:42:05.886Z,2.30
2019-03-09T16:44:34.911Z,2.07
2019-03-09T16:47:04.041Z,2.00
2019-03-09T16:49:33.105Z,2.13
2019-03-09T16:52:02.177Z,2.40
2019-03-09T16:54:31.330Z,2.20
2019-03-09T16:57:00.392Z,2.17
2019-03-09T16:59:29.396Z,2.63
2019-03-09T17:01:59.009Z,2.50
2019-03-09T17:04:28.031Z,2.00
2019-03-09T17:06:57.030Z,2.60
2019-03-09T17:09:26.001Z,2.23
2019-03-09T17:11:55.016Z,3.17
2019-03-09T17:14:24.038Z,2.73
2019-03-09T17:16:53.021Z,2.00
2019-03-09T17:19:22.101Z,2.20
2019-03-09T17:21:51.090Z,2.80
2019-03-09T17:24:20.130Z,2.20
2019-03-09T17:26:49.214Z,2.23
2019-03-09T17:29:18.228Z,2.03
2019-03-09T17:31:47.258Z,3.60
2019-03-09T17:34:16.323Z,2.10
2019-03-09T17:36:45.473Z,2.40
2019-03-09T17:39:14.566Z,2.73
2019-03-09T17:41:43.616Z,2.87
2019-03-09T17:44:12.724Z,2.70
2019-03-09T17:46:41.789Z,2.80
2019-03-09T17:49:10.876Z,2.80
2019-03-09T17:51:39.953Z,2.63
2019-03-09T17:54:09.018Z,2.60
2019-03-09T17:56:57.261Z,2.63
2019-03-09T17:59:26.274Z,3.03
2019-03-09T18:01:55.371Z,2.83
2019-03-09T18:04:24.410Z,3.10
2019-03-09T18:06:53.497Z,3.07
2019-03-09T18:09:22.497Z,2.87
2019-03-09T18:11:51.497Z,3.10
2019-03-09T18:14:20.596Z,2.30
2019-03-09T18:16:52.953Z,2.60
2019-03-09T18:19:20.313Z,3.73
2019-03-09T18:21:49.362Z,2.97
2019-03-09T18:24:18.443Z,2.53
2019-03-09T18:26:47.481Z,2.20
2019-03-09T18:29:16.533Z,3.43
2019-03-09T18:31:45.669Z,2.50
2019-03-09T18:34:33.886Z,2.83
2019-03-09T18:37:02.981Z,3.00
2019-03-09T18:39:32.049Z,3.43
2019-03-09T18:42:01.123Z,3.27
2019-03-09T18:44:30.245Z,2.73
2019-03-09T18:46:59.315Z,2.40
2019-03-09T18:49:28.433Z,3.10
2019-03-09T18:51:57.433Z,3.07
2019-03-09T18:54:26.514Z,3.37
2019-03-09T18:56:57.970Z,3.10
2019-03-09T18:59:27.028Z,2.90
2019-03-09T19:01:56.119Z,3.00
2019-03-09T19:04:25.106Z,2.90
2019-03-09T19:06:54.169Z,4.30
2019-03-09T19:09:23.215Z,3.50
2019-03-09T19:11:52.244Z,3.53
2019-03-09T19:14:21.256Z,4.00
2019-03-09T19:16:50.291Z,3.57
2019-03-09T19:19:19.374Z,4.57
2019-03-09T19:21:48.345Z,3.63
2019-03-09T19:24:17.453Z,3.40
2019-03-09T19:26:46.550Z,2.47
2019-03-09T19:29:15.643Z,3.57
2019-03-09T19:31:44.670Z,3.40
2019-03-09T19:34:13.759Z,2.83
2019-03-09T19:36:42.746Z,3.43
2019-03-09T19:39:11.791Z,2.50
2019-03-09T19:41:40.797Z,2.33
2019-03-09T19:44:09.914Z,2.83
2019-03-09T19:46:39.025Z,3.03
2019-03-09T19:49:08.085Z,3.07
2019-03-09T19:51:37.217Z,2.47
2019-03-09T19:54:25.419Z,2.93
2019-03-09T19:56:54.534Z,3.17
2019-03-09T19:59:23.595Z,2.27
2019-03-09T20:01:58.533Z,3.00
2019-03-09T20:04:29.036Z,2.80
2019-03-09T20:07:00.535Z,2.67
2019-03-09T20:09:32.000Z,2.80
2019-03-09T20:12:01.051Z,3.07
2019-03-09T20:14:30.530Z,2.77
2019-03-09T20:16:59.611Z,3.30
2019-03-09T20:19:28.678Z,2.37
2019-03-09T20:21:57.642Z,4.50
2019-03-09T20:24:45.838Z,3.67
2019-03-09T20:27:14.816Z,4.00
2019-03-09T20:29:43.869Z,2.57
2019-03-09T20:32:12.958Z,3.20
2019-03-09T20:34:41.961Z,2.87
2019-03-09T20:37:11.136Z,3.00
2019-03-09T20:39:40.313Z,3.00
2019-03-09T20:42:09.437Z,2.67
2019-03-09T20:44:38.486Z,2.60
2019-03-09T20:47:08.310Z,3.23
2019-03-09T20:49:37.568Z,2.93
2019-03-09T20:52:06.657Z,3.30
2019-03-09T20:54:35.748Z,4.13
2019-03-09T20:57:04.784Z,2.70
2019-03-09T20:59:33.801Z,2.93
2019-03-09T21:02:03.000Z,2.90
2019-03-09T21:04:32.085Z,3.53
2019-03-09T21:07:01.270Z,3.10
2019-03-09T21:09:30.290Z,2.63
2019-03-09T21:11:59.409Z,3.37
2019-03-09T21:14:28.441Z,2.83
2019-03-09T21:16:59.664Z,3.63
2019-03-09T21:19:28.278Z,3.10
2019-03-09T21:21:57.294Z,3.03
2019-03-09T21:24:26.349Z,4.13
2019-03-09T21:26:55.420Z,3.03
2019-03-09T21:29:24.512Z,2.70
2019-03-09T21:31:53.529Z,4.23
2019-03-09T21:34:22.584Z,3.40
2019-03-09T21:36:51.738Z,3.17
2019-03-09T21:39:20.899Z,3.03
2019-03-09T21:41:50.010Z,3.47
2019-03-09T21:44:21.408Z,3.17
2019-03-09T21:46:50.440Z,3.10
2019-03-09T21:49:19.455Z,3.47
2019-03-09T21:51:48.438Z,3.63
2019-03-09T21:54:36.614Z,3.00
2019-03-09T21:57:05.718Z,3.57
2019-03-09T21:59:34.725Z,2.53
2019-03-09T22:02:03.707Z,3.27
2019-03-09T22:04:33.971Z,3.23
2019-03-09T22:07:03.010Z,2.73
2019-03-09T22:09:32.078Z,3.33
2019-03-09T22:12:01.066Z,2.73
2019-03-09T22:14:30.059Z,4.00
2019-03-09T22:16:59.090Z,2.50
2019-03-09T22:19:28.124Z,3.10
2019-03-09T22:21:57.108Z,3.40
2019-03-09T22:24:26.254Z,3.60
2019-03-09T22:26:55.371Z,3.10
2019-03-09T22:29:24.458Z,3.13
2019-03-09T22:31:53.504Z,3.57
2019-03-09T22:34:23.610Z,2.60
2019-03-09T22:36:52.726Z,3.20
2019-03-09T22:39:21.875Z,3.90
2019-03-09T22:41:50.884Z,2.70
2019-03-09T22:44:31.202Z,2.90
2019-03-09T22:47:10.756Z,3.37
2019-03-09T22:49:30.947Z,3.20
2019-03-09T22:51:59.943Z,3.30
2019-03-09T22:54:29.091Z,3.37
2019-03-09T22:56:58.207Z,3.37
2019-03-09T22:59:27.271Z,3.07
2019-03-09T23:01:56.336Z,3.77
2019-03-09T23:04:25.514Z,3.37
2019-03-09T23:06:54.626Z,4.07
2019-03-09T23:09:23.755Z,3.63
2019-03-09T23:11:52.829Z,3.07
2019-03-09T23:14:21.781Z,3.50
2019-03-09T23:16:50.904Z,3.20
2019-03-09T23:19:19.973Z,3.57
2019-03-09T23:21:49.099Z,2.90
2019-03-09T23:24:18.159Z,2.77
2019-03-09T23:26:47.172Z,2.80
2019-03-09T23:29:16.176Z,3.30
2019-03-09T23:31:45.168Z,3.13
2019-03-09T23:34:14.167Z,3.13
2019-03-09T23:36:43.399Z,3.50
2019-03-09T23:39:12.415Z,3.57
2019-03-09T23:41:41.553Z,3.33
2019-03-09T23:44:10.630Z,3.20
2019-03-09T23:46:39.671Z,3.07
2019-03-09T23:49:08.714Z,2.77
2019-03-09T23:51:37.746Z,3.57
2019-03-09T23:54:06.803Z,3.03
2019-03-09T23:56:35.842Z,2.73
2019-03-09T23:59:04.842Z,3.97
